createdAt,value
2022-12-18T00:01:18.544Z,1.00
2022-12-18T00:03:46.927Z,99.90
2022-12-18T00:06:15.583Z,99.90
2022-12-18T00:08:43.761Z,99.90
2022-12-18T00:11:13.571Z,99.90
2022-12-18T00:13:41.947Z,99.90
2022-12-18T00:16:12.220Z,99.90
2022-12-18T00:18:41.827Z,99.90
2022-12-18T00:21:11.513Z,99.90
2022-12-18T00:23:40.206Z,99.90
2022-12-18T00:26:10.437Z,99.90
2022-12-18T00:28:38.496Z,99.90
2022-12-18T00:31:08.167Z,99.90
2022-12-18T00:33:36.936Z,99.90
2022-12-18T00:36:07.406Z,99.90
2022-12-18T00:38:35.271Z,99.90
2022-12-18T00:41:03.454Z,99.90
2022-12-18T00:43:30.330Z,99.90
2022-12-18T00:45:58.201Z,99.90
2022-12-18T00:48:26.038Z,99.90
2022-12-18T00:50:53.921Z,92.00
2022-12-18T00:53:23.175Z,28.50
2022-12-18T00:55:51.037Z,41.10
2022-12-18T00:58:18.927Z,30.00
2022-12-18T01:00:46.888Z,1.00
2022-12-18T01:03:15.893Z,1.00
2022-12-18T01:05:43.927Z,1.00
2022-12-18T01:08:11.777Z,1.00
2022-12-18T01:10:43.228Z,1.00
2022-12-18T01:13:11.077Z,1.00
2022-12-18T01:15:38.921Z,1.00
2022-12-18T01:18:06.752Z,1.00
2022-12-18T01:20:34.646Z,1.00
2022-12-18T01:23:02.458Z,99.90
2022-12-18T01:25:30.304Z,1.00
2022-12-18T01:27:59.513Z,1.00
2022-12-18T01:30:27.376Z,99.90
2022-12-18T01:32:55.195Z,99.90
2022-12-18T01:35:23.111Z,99.90
2022-12-18T01:37:50.984Z,99.90
2022-12-18T01:40:18.964Z,99.90
2022-12-18T01:42:46.825Z,99.90
2022-12-18T01:45:29.359Z,99.90
2022-12-18T01:47:58.559Z,99.90
2022-12-18T01:50:27.750Z,99.90
2022-12-18T01:52:57.387Z,99.90
2022-12-18T01:55:26.877Z,99.90
2022-12-18T01:57:56.153Z,99.90
2022-12-18T02:00:24.506Z,99.90
2022-12-18T02:02:54.177Z,99.90
2022-12-18T02:05:27.044Z,99.90
2022-12-18T02:08:00.090Z,99.90
2022-12-18T02:10:30.088Z,99.90
2022-12-18T02:13:01.231Z,99.90
2022-12-18T02:15:32.591Z,99.90
2022-12-18T02:18:05.599Z,99.90
2022-12-18T02:20:37.086Z,99.90
2022-12-18T02:23:11.062Z,99.90
2022-12-18T02:25:45.519Z,99.90
2022-12-18T02:28:15.793Z,99.90
2022-12-18T02:30:44.720Z,99.90
2022-12-18T02:33:13.251Z,99.90
2022-12-18T02:35:42.496Z,99.90
2022-12-18T02:38:11.106Z,99.90
2022-12-18T02:40:39.796Z,99.90
2022-12-18T02:43:09.397Z,99.90
2022-12-18T02:45:39.223Z,99.90
2022-12-18T02:48:07.271Z,99.90
2022-12-18T02:50:37.023Z,99.90
2022-12-18T02:53:10.146Z,99.90
2022-12-18T02:55:45.955Z,99.90
2022-12-18T02:58:16.761Z,99.90
2022-12-18T03:00:50.723Z,99.90
2022-12-18T03:03:21.852Z,99.90
2022-12-18T03:05:52.695Z,99.90
2022-12-18T03:08:22.647Z,99.90
2022-12-18T03:10:56.163Z,99.90
2022-12-18T03:13:28.244Z,99.90
2022-12-18T03:15:58.654Z,99.90
2022-12-18T03:18:28.028Z,99.90
2022-12-18T03:20:56.617Z,99.90
2022-12-18T03:23:26.772Z,99.90
2022-12-18T03:25:56.793Z,99.90
2022-12-18T03:28:25.032Z,99.90
2022-12-18T03:30:54.850Z,99.90
2022-12-18T03:33:27.773Z,99.90
2022-12-18T03:35:55.651Z,99.90
2022-12-18T03:38:23.601Z,99.90
2022-12-18T03:40:55.913Z,99.90
2022-12-18T03:43:30.328Z,99.90
2022-12-18T03:46:04.664Z,99.90
2022-12-18T03:48:36.488Z,92.50
2022-12-18T03:51:07.197Z,99.90
2022-12-18T03:53:38.301Z,99.90
2022-12-18T03:56:06.849Z,99.90
2022-12-18T03:58:35.441Z,99.90
2022-12-18T04:01:05.369Z,99.90
2022-12-18T04:03:36.518Z,99.90
2022-12-18T04:06:05.271Z,99.90
2022-12-18T04:08:34.218Z,99.90
2022-12-18T04:11:02.123Z,99.90
2022-12-18T04:13:31.491Z,82.10
2022-12-18T04:15:59.525Z,99.10
2022-12-18T04:18:27.467Z,91.80
2022-12-18T04:20:56.852Z,68.50
2022-12-18T04:23:24.708Z,67.30
2022-12-18T04:25:52.571Z,62.50
2022-12-18T04:28:20.449Z,73.50
2022-12-18T04:30:49.018Z,28.70
2022-12-18T04:33:20.587Z,12.70
2022-12-18T04:35:48.497Z,33.10
2022-12-18T04:38:17.711Z,69.70
2022-12-18T04:40:45.625Z,61.40
2022-12-18T04:43:13.494Z,62.20
2022-12-18T04:45:41.504Z,58.70
2022-12-18T04:48:09.413Z,63.50
2022-12-18T04:50:37.831Z,30.00
2022-12-18T04:53:05.742Z,29.60
2022-12-18T04:55:34.899Z,88.80
2022-12-18T04:58:02.708Z,83.90
2022-12-18T05:00:30.578Z,59.30
2022-12-18T05:02:58.522Z,32.60
2022-12-18T05:05:26.440Z,16.20
2022-12-18T05:07:54.417Z,27.80
2022-12-18T05:10:22.275Z,11.30
2022-12-18T05:13:01.397Z,35.70
2022-12-18T05:15:30.072Z,33.50
2022-12-18T05:17:58.108Z,39.20
2022-12-18T05:20:26.603Z,29.00
2022-12-18T05:22:55.534Z,26.60
2022-12-18T05:25:23.410Z,12.20
2022-12-18T05:27:52.637Z,8.00
2022-12-18T05:30:20.474Z,1.00
2022-12-18T05:32:48.319Z,1.00
2022-12-18T05:35:16.145Z,1.00
2022-12-18T05:37:43.994Z,1.00
2022-12-18T05:40:12.644Z,1.00
2022-12-18T05:42:40.465Z,1.00
2022-12-18T05:45:10.237Z,1.00
2022-12-18T05:47:38.067Z,1.00
2022-12-18T05:50:06.442Z,1.00
2022-12-18T05:52:34.254Z,1.00
2022-12-18T05:55:02.115Z,1.00
2022-12-18T05:57:29.933Z,1.00
2022-12-18T05:59:57.901Z,1.00
2022-12-18T06:02:27.256Z,1.00
2022-12-18T06:04:55.219Z,1.00
2022-12-18T06:07:23.088Z,1.00
2022-12-18T06:09:50.947Z,1.00
2022-12-18T06:12:18.828Z,1.00
2022-12-18T06:14:46.686Z,1.00
2022-12-18T06:17:14.597Z,1.00
2022-12-18T06:19:43.809Z,1.00
2022-12-18T06:22:11.661Z,1.00
2022-12-18T06:24:39.737Z,1.00
2022-12-18T06:27:07.667Z,1.00
2022-12-18T06:29:35.531Z,1.00
2022-12-18T06:32:03.497Z,1.00
2022-12-18T06:34:31.372Z,1.00
2022-12-18T06:37:00.928Z,1.00
2022-12-18T06:39:29.298Z,1.00
2022-12-18T06:41:57.151Z,1.00
2022-12-18T06:44:25.019Z,1.00
2022-12-18T06:46:52.877Z,1.00
2022-12-18T06:49:20.765Z,1.00
2022-12-18T06:51:48.896Z,1.00
2022-12-18T06:54:18.108Z,1.00
2022-12-18T06:56:46.947Z,1.00
2022-12-18T06:59:15.509Z,1.00
2022-12-18T07:01:43.433Z,1.00
2022-12-18T07:04:11.424Z,1.00
2022-12-18T07:06:39.251Z,1.00
2022-12-18T07:09:07.097Z,1.00
2022-12-18T07:11:36.344Z,1.00
2022-12-18T07:14:04.189Z,1.00
2022-12-18T07:16:32.134Z,1.00
2022-12-18T07:19:01.838Z,1.00
2022-12-18T07:21:29.708Z,1.00
2022-12-18T07:23:58.234Z,1.00
2022-12-18T07:26:27.336Z,1.00
2022-12-18T07:28:58.473Z,1.00
2022-12-18T07:31:26.991Z,1.00
2022-12-18T07:33:54.976Z,1.00
2022-12-18T07:36:25.832Z,1.00
2022-12-18T07:38:54.027Z,1.00
2022-12-18T07:41:22.116Z,1.00
2022-12-18T07:43:50.249Z,1.00
2022-12-18T07:46:19.761Z,1.00
2022-12-18T07:48:49.574Z,1.00
2022-12-18T07:51:18.754Z,1.00
2022-12-18T07:53:46.765Z,1.00
2022-12-18T07:56:27.241Z,1.00
2022-12-18T07:58:56.167Z,1.00
2022-12-18T08:01:25.758Z,4.30
2022-12-18T08:03:53.819Z,7.00
2022-12-18T08:06:24.341Z,7.70
2022-12-18T08:08:53.101Z,11.10
2022-12-18T08:11:20.940Z,19.50
2022-12-18T08:13:49.570Z,45.10
2022-12-18T08:16:17.822Z,49.90
2022-12-18T08:18:47.112Z,78.70
2022-12-18T08:21:16.057Z,99.90
2022-12-18T08:23:44.630Z,99.90
2022-12-18T08:26:13.183Z,99.90
2022-12-18T08:28:41.085Z,99.90
2022-12-18T08:31:09.606Z,1.00
2022-12-18T08:33:38.836Z,1.00
2022-12-18T08:36:08.983Z,99.90
2022-12-18T08:38:36.887Z,1.00
2022-12-18T08:41:05.669Z,1.00
2022-12-18T08:43:51.296Z,1.00
2022-12-18T08:46:19.411Z,1.00
2022-12-18T08:48:47.622Z,1.00
2022-12-18T08:51:18.022Z,99.90
2022-12-18T08:53:46.518Z,99.90
2022-12-18T08:56:14.847Z,1.00
2022-12-18T08:58:43.029Z,1.00
2022-12-18T09:01:11.717Z,1.00
2022-12-18T09:03:40.431Z,1.00
2022-12-18T09:06:09.193Z,1.00
2022-12-18T09:08:38.983Z,99.90
2022-12-18T09:11:12.733Z,1.00
2022-12-18T09:13:40.859Z,99.90
2022-12-18T09:16:09.321Z,99.90
2022-12-18T09:18:37.788Z,99.90
2022-12-18T09:21:12.609Z,99.90
2022-12-18T09:23:41.835Z,99.90
2022-12-18T09:26:09.771Z,99.90
2022-12-18T09:28:37.854Z,99.90
2022-12-18T09:31:07.480Z,99.90
2022-12-18T09:33:35.783Z,99.90
2022-12-18T09:36:04.338Z,99.90
2022-12-18T09:38:32.206Z,99.90
2022-12-18T09:41:02.539Z,99.90
2022-12-18T09:43:31.925Z,99.90
2022-12-18T09:46:03.327Z,99.90
2022-12-18T09:48:32.949Z,99.90
2022-12-18T09:51:03.021Z,1.00
2022-12-18T09:53:34.144Z,1.00
2022-12-18T09:56:04.076Z,99.90
2022-12-18T09:58:33.856Z,99.90
2022-12-18T10:01:01.867Z,99.90
2022-12-18T10:03:29.733Z,99.90
2022-12-18T10:06:01.876Z,99.90
2022-12-18T10:08:33.198Z,99.90
2022-12-18T10:11:05.533Z,99.90
2022-12-18T10:13:36.044Z,99.90
2022-12-18T10:16:10.609Z,99.90
2022-12-18T10:18:49.232Z,40.10
2022-12-18T10:21:20.107Z,80.20
2022-12-18T10:23:53.485Z,92.80
2022-12-18T10:26:22.752Z,98.90
2022-12-18T10:28:50.678Z,99.90
2022-12-18T10:31:19.403Z,99.90
2022-12-18T10:33:47.443Z,99.90
2022-12-18T10:36:15.397Z,99.90
2022-12-18T10:38:43.762Z,99.90
2022-12-18T10:41:26.980Z,99.90
2022-12-18T10:44:10.235Z,99.90
2022-12-18T10:46:39.728Z,99.90
2022-12-18T10:49:07.777Z,99.90
2022-12-18T10:51:38.363Z,99.90
2022-12-18T10:54:07.559Z,99.90
2022-12-18T10:56:36.071Z,99.90
2022-12-18T10:59:06.054Z,99.90
2022-12-18T11:01:47.528Z,99.90
2022-12-18T11:04:18.447Z,99.90
2022-12-18T11:06:54.888Z,1.00
2022-12-18T11:09:23.929Z,1.00
2022-12-18T11:11:53.376Z,1.00
2022-12-18T11:14:23.638Z,1.00
2022-12-18T11:19:43.054Z,1.00
2022-12-18T11:22:21.153Z,1.00
2022-12-18T11:25:29.531Z,1.00
2022-12-18T11:27:42.496Z,1.00
2022-12-18T11:30:11.167Z,1.00
2022-12-18T11:32:40.752Z,1.00
2022-12-18T11:35:16.190Z,92.60
2022-12-18T11:37:45.696Z,99.90
2022-12-18T11:40:16.124Z,99.90
2022-12-18T11:42:47.013Z,99.90
2022-12-18T11:45:25.926Z,99.90
2022-12-18T11:47:57.934Z,99.90
2022-12-18T11:50:27.027Z,99.90
2022-12-18T11:52:58.343Z,1.00
2022-12-18T11:55:33.348Z,1.00
2022-12-18T11:58:05.379Z,99.90
2022-12-18T12:00:33.440Z,99.90
2022-12-18T12:03:15.973Z,99.90
2022-12-18T12:05:51.034Z,1.00
2022-12-18T12:08:24.706Z,99.90
2022-12-18T12:10:58.463Z,99.90
2022-12-18T12:13:32.048Z,52.20
2022-12-18T12:16:03.948Z,5.20
2022-12-18T12:18:37.107Z,1.00
2022-12-18T12:21:07.316Z,1.00
2022-12-18T12:23:40.204Z,96.60
2022-12-18T12:26:09.727Z,1.00
2022-12-18T12:28:50.308Z,99.90
2022-12-18T12:31:23.198Z,1.00
2022-12-18T12:33:55.222Z,99.90
2022-12-18T12:36:28.204Z,1.00
2022-12-18T12:38:58.308Z,1.00
2022-12-18T12:41:45.143Z,99.90
2022-12-18T12:44:16.938Z,46.80
2022-12-18T12:46:45.532Z,1.00
2022-12-18T12:49:17.261Z,99.90
2022-12-18T12:51:47.458Z,1.00
2022-12-18T12:54:18.034Z,1.00
2022-12-18T12:56:48.219Z,1.00
2022-12-18T12:59:19.260Z,1.00
2022-12-18T13:01:52.068Z,1.00
2022-12-18T13:04:25.082Z,1.00
2022-12-18T13:06:56.584Z,1.00
2022-12-18T13:09:24.786Z,1.00
2022-12-18T13:12:10.211Z,1.00
2022-12-18T13:14:39.210Z,1.00
2022-12-18T13:17:17.209Z,1.00
2022-12-18T13:19:46.668Z,1.00
2022-12-18T13:22:24.844Z,1.00
2022-12-18T13:24:53.413Z,99.90
2022-12-18T13:27:40.708Z,1.00
2022-12-18T13:30:42.328Z,1.00
2022-12-18T13:33:29.117Z,99.90
2022-12-18T13:36:03.852Z,99.90
2022-12-18T13:38:35.529Z,1.00
2022-12-18T13:41:04.235Z,1.00
2022-12-18T13:43:34.784Z,99.90
2022-12-18T13:46:04.050Z,99.90
2022-12-18T13:48:34.007Z,1.00
2022-12-18T13:51:05.493Z,1.00
2022-12-18T13:53:35.741Z,99.90
2022-12-18T13:56:04.364Z,1.00
2022-12-18T13:58:32.235Z,1.00
2022-12-18T14:01:03.041Z,65.70
2022-12-18T14:03:31.551Z,99.90
2022-12-18T14:06:06.727Z,1.00
2022-12-18T14:08:37.822Z,99.90
2022-12-18T14:11:06.425Z,99.90
2022-12-18T14:13:37.825Z,99.90
2022-12-18T14:16:06.591Z,1.00
2022-12-18T14:18:38.685Z,1.00
2022-12-18T14:21:08.832Z,1.00
2022-12-18T14:23:38.131Z,1.00
2022-12-18T14:26:21.882Z,99.90
2022-12-18T14:28:49.733Z,99.90
2022-12-18T14:31:21.562Z,25.00
2022-12-18T14:33:49.718Z,1.00
2022-12-18T14:36:19.496Z,10.90
2022-12-18T14:38:50.467Z,1.00
2022-12-18T14:41:19.154Z,99.90
2022-12-18T14:43:47.751Z,1.00
2022-12-18T14:46:29.794Z,1.00
2022-12-18T14:48:58.059Z,99.90
2022-12-18T14:51:27.987Z,99.90
2022-12-18T14:53:57.152Z,99.90
2022-12-18T14:56:26.434Z,1.00
2022-12-18T14:58:55.958Z,1.00
2022-12-18T15:01:28.697Z,99.90
2022-12-18T15:03:57.661Z,99.90
2022-12-18T15:06:29.062Z,99.90
2022-12-18T15:08:56.926Z,99.90
2022-12-18T15:11:34.846Z,99.90
2022-12-18T15:14:23.100Z,99.90
2022-12-18T15:16:52.695Z,1.00
2022-12-18T15:19:20.894Z,99.90
2022-12-18T15:21:50.092Z,99.90
2022-12-18T15:24:29.340Z,47.80
2022-12-18T15:26:57.227Z,1.00
2022-12-18T15:29:26.325Z,1.00
2022-12-18T15:32:01.208Z,99.90
2022-12-18T15:34:29.696Z,99.90
2022-12-18T15:36:58.936Z,99.90
2022-12-18T15:39:26.939Z,99.90
2022-12-18T15:42:12.470Z,1.00
2022-12-18T15:44:40.423Z,1.00
2022-12-18T15:47:11.546Z,1.00
2022-12-18T15:49:39.446Z,1.00
2022-12-18T15:52:10.348Z,1.00
2022-12-18T15:54:57.303Z,1.00
2022-12-18T15:57:25.175Z,1.00
2022-12-18T15:59:55.068Z,1.00
2022-12-18T16:02:24.680Z,1.00
2022-12-18T16:04:53.040Z,1.00
2022-12-18T16:07:25.137Z,1.00
2022-12-18T16:09:53.986Z,1.00
2022-12-18T16:12:24.524Z,1.00
2022-12-18T16:14:52.378Z,1.00
2022-12-18T16:17:20.212Z,1.00
2022-12-18T16:19:48.093Z,1.00
2022-12-18T16:22:20.181Z,1.00
2022-12-18T16:24:49.667Z,1.00
2022-12-18T16:27:17.858Z,1.00
2022-12-18T16:29:45.793Z,1.00
2022-12-18T16:32:14.892Z,1.00
2022-12-18T16:34:43.176Z,1.00
2022-12-18T16:37:11.861Z,1.00
2022-12-18T16:39:40.222Z,1.00
2022-12-18T16:42:15.437Z,99.90
2022-12-18T16:44:43.519Z,99.90
2022-12-18T16:47:13.276Z,99.90
2022-12-18T16:49:45.213Z,99.90
2022-12-18T16:52:13.071Z,4.60
2022-12-18T16:54:40.900Z,1.00
2022-12-18T16:57:11.300Z,1.00
2022-12-18T16:59:39.181Z,1.00
2022-12-18T17:02:07.248Z,1.00
2022-12-18T17:04:35.164Z,1.00
2022-12-18T17:07:04.643Z,99.90
2022-12-18T17:09:32.501Z,1.00
2022-12-18T17:12:03.996Z,1.00
2022-12-18T17:14:34.170Z,1.00
2022-12-18T17:19:50.092Z,1.00
2022-12-18T17:22:17.953Z,1.00
2022-12-18T17:24:45.824Z,99.90
2022-12-18T17:27:13.821Z,99.90
2022-12-18T17:29:47.442Z,99.90
2022-12-18T17:32:16.035Z,1.00
2022-12-18T17:34:43.862Z,99.90
2022-12-18T17:37:11.820Z,99.90
2022-12-18T17:39:39.984Z,99.90
2022-12-18T17:42:14.778Z,99.60
2022-12-18T17:44:45.216Z,1.00
2022-12-18T17:47:13.258Z,1.00
2022-12-18T17:49:41.239Z,99.90
2022-12-18T17:52:09.157Z,6.00
2022-12-18T17:54:39.784Z,1.00
2022-12-18T17:57:07.855Z,99.90
2022-12-18T17:59:35.736Z,99.90
2022-12-18T18:02:05.143Z,99.90
2022-12-18T18:04:33.177Z,1.00
2022-12-18T18:07:01.039Z,99.90
2022-12-18T18:09:28.927Z,1.00
2022-12-18T18:12:14.216Z,46.10
2022-12-18T18:14:42.219Z,99.90
2022-12-18T18:17:11.462Z,99.90
2022-12-18T18:19:39.308Z,19.50
2022-12-18T18:22:08.126Z,99.90
2022-12-18T18:24:35.980Z,1.00
2022-12-18T18:27:03.794Z,99.90
2022-12-18T18:29:34.412Z,99.90
2022-12-18T18:32:02.435Z,99.90
2022-12-18T18:34:32.821Z,1.00
2022-12-18T18:37:00.668Z,1.00
2022-12-18T18:39:29.102Z,1.00
2022-12-18T18:41:57.056Z,1.00
2022-12-18T18:44:25.980Z,1.00
2022-12-18T18:46:54.656Z,1.00
2022-12-18T18:49:24.202Z,1.00
2022-12-18T18:51:53.448Z,1.00
2022-12-18T18:54:22.180Z,1.00
2022-12-18T18:59:38.403Z,1.00
2022-12-18T19:02:06.459Z,41.00
2022-12-18T19:04:34.880Z,51.30
2022-12-18T19:07:04.104Z,77.70
2022-12-18T19:09:32.347Z,64.30
2022-12-18T19:12:17.361Z,43.60
2022-12-18T19:14:45.337Z,85.60
2022-12-18T19:17:13.292Z,87.60
2022-12-18T19:19:41.238Z,90.30
2022-12-18T19:22:10.988Z,86.10
2022-12-18T19:24:38.995Z,66.10
2022-12-18T19:27:06.858Z,49.10
2022-12-18T19:29:34.744Z,52.10
2022-12-18T19:32:04.840Z,67.30
2022-12-18T19:34:32.789Z,97.30
2022-12-18T19:37:00.824Z,99.90
2022-12-18T19:39:30.068Z,99.90
2022-12-18T19:41:57.973Z,99.90
2022-12-18T19:44:26.801Z,99.90
2022-12-18T19:46:54.660Z,99.90
2022-12-18T19:49:22.530Z,99.90
2022-12-18T19:51:50.586Z,99.90
2022-12-18T19:54:18.660Z,99.90
2022-12-18T19:56:47.953Z,99.90
2022-12-18T19:59:15.826Z,99.90
2022-12-18T20:01:43.878Z,99.90
2022-12-18T20:04:11.910Z,99.90
2022-12-18T20:06:47.218Z,99.90
2022-12-18T20:09:15.260Z,99.90
2022-12-18T20:11:43.327Z,99.90
2022-12-18T20:14:12.760Z,99.90
2022-12-18T20:16:40.912Z,99.90
2022-12-18T20:19:08.950Z,99.90
2022-12-18T20:21:37.827Z,99.90
2022-12-18T20:24:06.995Z,99.90
2022-12-18T20:26:34.912Z,99.90
2022-12-18T20:29:02.719Z,99.90
2022-12-18T20:31:32.024Z,99.90
2022-12-18T20:34:01.618Z,99.90
2022-12-18T20:36:34.073Z,99.90
2022-12-18T20:39:02.654Z,99.90
2022-12-18T20:41:38.247Z,99.90
2022-12-18T20:44:10.439Z,99.90
2022-12-18T20:46:52.862Z,99.90
2022-12-18T20:49:20.726Z,99.90
2022-12-18T20:51:50.554Z,99.90
2022-12-18T20:54:21.879Z,99.90
2022-12-18T20:56:49.777Z,99.90
2022-12-18T20:59:17.950Z,99.90
2022-12-18T21:01:48.624Z,99.90
2022-12-18T21:04:19.182Z,99.90
2022-12-18T21:06:52.888Z,99.90
2022-12-18T21:09:23.619Z,99.90
2022-12-18T21:12:08.803Z,99.90
2022-12-18T21:14:41.757Z,99.90
2022-12-18T21:17:09.655Z,99.90
2022-12-18T21:19:39.155Z,99.90
2022-12-18T21:22:07.250Z,99.90
2022-12-18T21:24:35.103Z,99.90
2022-12-18T21:27:03.663Z,99.90
2022-12-18T21:29:31.680Z,99.90
2022-12-18T21:31:59.822Z,99.90
2022-12-18T21:34:28.335Z,99.90
2022-12-18T21:36:58.462Z,99.90
2022-12-18T21:39:26.753Z,99.90
2022-12-18T21:42:14.601Z,99.90
2022-12-18T21:44:42.869Z,99.90
2022-12-18T21:47:22.045Z,99.90
2022-12-18T21:49:51.655Z,99.90
2022-12-18T21:52:23.761Z,99.90
2022-12-18T21:55:03.086Z,99.90
2022-12-18T21:57:36.090Z,99.90
2022-12-18T22:00:04.969Z,99.90
2022-12-18T22:02:33.027Z,99.90
2022-12-18T22:05:00.927Z,99.90
2022-12-18T22:07:30.436Z,99.90
2022-12-18T22:09:58.277Z,99.90
2022-12-18T22:12:38.062Z,99.90
2022-12-18T22:15:13.883Z,99.90
2022-12-18T22:17:49.140Z,99.90
2022-12-18T22:20:17.064Z,99.90
2022-12-18T22:22:46.491Z,99.90
2022-12-18T22:25:14.388Z,99.90
2022-12-18T22:27:42.223Z,99.90
2022-12-18T22:30:10.990Z,99.90
2022-12-18T22:32:38.847Z,99.90
2022-12-18T22:35:10.615Z,99.90
2022-12-18T22:37:40.700Z,99.90
2022-12-18T22:40:11.198Z,99.90
2022-12-18T22:42:40.938Z,99.90
2022-12-18T22:45:09.277Z,99.90
2022-12-18T22:47:37.209Z,99.90
2022-12-18T22:50:05.794Z,99.90
2022-12-18T22:52:33.672Z,99.90
2022-12-18T22:55:01.508Z,99.90
2022-12-18T22:57:30.693Z,99.90
2022-12-18T22:59:58.565Z,99.90
2022-12-18T23:02:26.618Z,99.90
2022-12-18T23:04:54.588Z,99.90
2022-12-18T23:07:22.440Z,99.90
2022-12-18T23:09:51.232Z,99.90
2022-12-18T23:12:30.151Z,99.90
2022-12-18T23:14:57.970Z,99.90
2022-12-18T23:17:25.797Z,99.90
2022-12-18T23:19:53.585Z,99.90
2022-12-18T23:22:21.426Z,99.90
2022-12-18T23:24:49.255Z,99.90
2022-12-18T23:27:17.102Z,99.90
2022-12-18T23:29:46.313Z,99.90
2022-12-18T23:32:15.692Z,99.90
2022-12-18T23:34:43.803Z,99.90
2022-12-18T23:37:11.657Z,99.90
2022-12-18T23:39:39.492Z,99.90
2022-12-18T23:42:07.331Z,99.90
2022-12-18T23:44:35.202Z,99.90
2022-12-18T23:47:04.414Z,99.90
2022-12-18T23:49:32.411Z,99.90
2022-12-18T23:52:00.450Z,99.90
2022-12-18T23:54:33.386Z,99.90
2022-12-18T23:57:01.912Z,99.90
2022-12-18T23:59:29.755Z,99.90
